Time;durP1;ratioP1;P1;durP2;ratioP2;P2;SDS_P1;SDS_P2;PMS_P1;PMS_P2;Temp;Humidity;BMP_temperature;BMP_pressure;BME280_temperature;BME280_humidity;BME280_pressure;Samples;Min_cycle;Max_cycle;Signal;HPM_P1;HPM_P2
2022/02/19 00:02:05;;;;;;;1.13;0.45;;;25.60;45.10;;;;;;5090517;28;20204;-59
2022/02/19 00:04:36;;;;;;;0.90;0.30;;;25.60;45.20;;;;;;5090057;28;20225;-61
2022/02/19 00:07:07;;;;;;;1.55;0.40;;;25.60;45.20;;;;;;5078292;28;20251;-60
2022/02/19 00:09:38;;;;;;;1.00;0.50;;;25.60;45.20;;;;;;5089674;28;20201;-61
2022/02/19 00:12:09;;;;;;;1.55;0.70;;;25.60;45.20;;;;;;5090210;28;20281;-61
2022/02/19 00:14:42;;;;;;;3.83;1.30;;;25.70;45.30;;;;;;5090197;28;20246;-60
2022/02/19 00:17:14;;;;;;;2.78;1.38;;;25.70;45.20;;;;;;5090115;28;20255;-61
2022/02/19 00:19:44;;;;;;;4.75;1.80;;;25.70;45.20;;;;;;5089927;28;20283;-59
2022/02/19 00:22:15;;;;;;;5.13;1.92;;;25.60;45.20;;;;;;5090174;28;20202;-61
2022/02/19 00:24:46;;;;;;;4.65;1.92;;;25.70;45.30;;;;;;5089509;28;20334;-61
2022/02/19 00:27:16;;;;;;;5.57;1.90;;;25.70;45.30;;;;;;5090111;28;20194;-60
2022/02/19 00:29:49;;;;;;;4.18;1.98;;;25.70;45.30;;;;;;5090055;28;20275;-59
2022/02/19 00:32:19;;;;;;;5.32;2.00;;;25.70;45.30;;;;;;5089065;28;20252;-60
2022/02/19 00:34:51;;;;;;;4.70;2.10;;;25.70;45.30;;;;;;5089935;28;20570;-61
2022/02/19 00:37:21;;;;;;;3.40;1.60;;;25.70;45.30;;;;;;5090507;28;20200;-61
2022/02/19 00:39:52;;;;;;;6.03;2.15;;;25.70;45.30;;;;;;5089444;28;20279;-60
2022/02/19 00:42:22;;;;;;;3.92;2.17;;;25.70;45.30;;;;;;5090046;28;20233;-60
2022/02/19 00:44:55;;;;;;;5.22;1.95;;;25.70;45.30;;;;;;5089768;28;20244;-58
2022/02/19 00:47:25;;;;;;;4.03;2.28;;;25.70;45.20;;;;;;5089754;28;20223;-60
2022/02/19 00:49:56;;;;;;;3.58;1.70;;;25.70;45.20;;;;;;5089140;28;20271;-59
2022/02/19 00:52:27;;;;;;;5.97;2.00;;;25.70;45.20;;;;;;5077072;28;20248;-61
2022/02/19 00:54:57;;;;;;;6.13;2.08;;;25.70;45.20;;;;;;5075663;28;20747;-59
2022/02/19 00:57:28;;;;;;;6.40;2.00;;;25.70;45.20;;;;;;5089629;28;20198;-60
2022/02/19 01:00:00;;;;;;;3.88;1.80;;;25.80;45.20;;;;;;5089479;28;20743;-60
2022/02/19 01:02:31;;;;;;;3.85;1.90;;;25.70;45.20;;;;;;5089556;28;20190;-61
2022/02/19 01:05:01;;;;;;;4.15;1.75;;;25.70;45.20;;;;;;5089745;28;20217;-61
2022/02/19 01:07:32;;;;;;;4.43;2.00;;;25.70;45.10;;;;;;5089580;28;20251;-60
2022/02/19 01:10:02;;;;;;;3.33;1.40;;;25.70;45.20;;;;;;5089391;28;20214;-60
2022/02/19 01:12:33;;;;;;;2.67;1.70;;;25.70;45.10;;;;;;5089649;28;20190;-60
2022/02/19 01:15:06;;;;;;;2.85;1.52;;;25.70;45.20;;;;;;5089834;28;20198;-60
2022/02/19 01:17:37;;;;;;;4.05;1.70;;;25.70;45.20;;;;;;5089497;28;20703;-59
2022/02/19 01:20:12;;;;;;;5.38;1.80;;;25.70;45.20;;;;;;5088961;28;20976;-61
2022/02/19 01:22:44;;;;;;;4.13;1.95;;;25.70;45.20;;;;;;5089634;28;20200;-60
2022/02/19 01:25:15;;;;;;;3.45;1.52;;;25.70;45.30;;;;;;5088894;28;20222;-61
2022/02/19 01:27:45;;;;;;;4.85;1.40;;;25.80;45.30;;;;;;5089560;28;20595;-61
2022/02/19 01:30:18;;;;;;;2.70;1.58;;;25.70;45.30;;;;;;5089486;28;20213;-60
2022/02/19 01:32:48;;;;;;;3.10;1.50;;;25.70;45.30;;;;;;5089653;28;20202;-60
2022/02/19 01:35:19;;;;;;;4.05;1.90;;;25.80;45.30;;;;;;5089640;28;20240;-60
2022/02/19 01:37:49;;;;;;;3.50;1.60;;;25.70;45.30;;;;;;5089923;28;20193;-60
2022/02/19 01:40:20;;;;;;;3.28;1.58;;;25.70;45.30;;;;;;5089020;28;20738;-61
2022/02/19 01:42:51;;;;;;;3.13;1.70;;;25.70;45.40;;;;;;5090075;28;20197;-61
2022/02/19 01:45:23;;;;;;;3.75;1.67;;;25.80;45.40;;;;;;5092885;28;20225;-60
2022/02/19 01:47:54;;;;;;;4.13;1.48;;;25.70;45.30;;;;;;5092764;28;20668;-60
2022/02/19 01:50:25;;;;;;;3.05;1.70;;;25.70;45.30;;;;;;5092449;28;20221;-60
2022/02/19 01:52:55;;;;;;;3.10;2.00;;;25.80;45.30;;;;;;5092502;28;20202;-60
2022/02/19 01:55:26;;;;;;;2.60;1.50;;;25.70;45.30;;;;;;5092243;28;20198;-60
2022/02/19 01:57:57;;;;;;;2.90;1.48;;;25.70;45.30;;;;;;5092570;28;20641;-59
2022/02/19 02:00:29;;;;;;;2.50;1.50;;;25.80;45.40;;;;;;5092287;28;20719;-59
2022/02/19 02:03:00;;;;;;;3.80;1.38;;;25.80;45.40;;;;;;5092644;28;20654;-60
2022/02/19 02:05:34;;;;;;;3.00;1.80;;;25.70;45.30;;;;;;5092221;28;20229;-60
2022/02/19 02:08:09;;;;;;;1.98;1.25;;;25.70;45.30;;;;;;5092093;28;20194;-60
2022/02/19 02:10:40;;;;;;;4.05;1.33;;;25.70;45.40;;;;;;5091903;28;20217;-60
2022/02/19 02:13:11;;;;;;;2.67;1.50;;;25.80;45.50;;;;;;5092636;28;20239;-60
2022/02/19 02:15:43;;;;;;;3.25;1.33;;;25.80;45.50;;;;;;5092516;28;20240;-60
2022/02/19 02:18:14;;;;;;;2.83;1.40;;;25.80;45.60;;;;;;5092321;28;20566;-60
2022/02/19 02:20:44;;;;;;;4.15;1.60;;;25.80;45.50;;;;;;5092226;28;20264;-61
2022/02/19 02:23:17;;;;;;;4.70;1.70;;;25.80;45.60;;;;;;5092379;28;20256;-61
2022/02/19 02:25:48;;;;;;;2.28;1.17;;;25.80;45.60;;;;;;5091552;28;20754;-61
2022/02/19 02:28:19;;;;;;;1.65;1.20;;;25.80;45.60;;;;;;5092232;28;20642;-61
2022/02/19 02:30:50;;;;;;;3.28;1.50;;;25.80;45.70;;;;;;5091335;28;20202;-61
2022/02/19 02:33:22;;;;;;;3.22;1.30;;;25.80;45.70;;;;;;5091733;28;20609;-61
2022/02/19 02:35:53;;;;;;;1.85;1.20;;;25.80;45.80;;;;;;5091386;28;20202;-59
2022/02/19 02:38:25;;;;;;;2.05;1.05;;;25.80;45.80;;;;;;5091770;28;20650;-60
2022/02/19 02:40:56;;;;;;;2.42;1.50;;;25.70;45.60;;;;;;5092052;28;20214;-61
2022/02/19 02:43:27;;;;;;;2.33;1.30;;;25.70;45.60;;;;;;5091848;28;20256;-61
2022/02/19 02:45:57;;;;;;;2.00;1.10;;;25.80;45.70;;;;;;5091318;28;20681;-61
2022/02/19 02:48:28;;;;;;;3.17;1.52;;;25.70;45.70;;;;;;5091270;28;20547;-60
2022/02/19 02:51:01;;;;;;;3.30;1.27;;;25.80;45.80;;;;;;5091585;28;20280;-60
2022/02/19 02:53:33;;;;;;;3.25;1.50;;;25.80;45.80;;;;;;5091346;28;20194;-60
2022/02/19 02:56:04;;;;;;;3.08;1.23;;;25.80;45.80;;;;;;5091655;28;20649;-60
2022/02/19 02:58:35;;;;;;;1.98;1.20;;;25.80;45.90;;;;;;5091327;28;20725;-60
2022/02/19 03:01:06;;;;;;;2.08;1.20;;;25.80;45.90;;;;;;5091390;28;20274;-61
2022/02/19 03:03:37;;;;;;;2.15;1.23;;;25.80;45.90;;;;;;5091415;28;20228;-61
2022/02/19 03:06:08;;;;;;;2.08;1.20;;;25.80;46.00;;;;;;5091511;28;20226;-60
2022/02/19 03:08:40;;;;;;;2.65;1.20;;;25.80;46.10;;;;;;5091402;28;20654;-61
2022/02/19 03:11:11;;;;;;;2.17;1.25;;;25.80;46.10;;;;;;5090644;28;20218;-61
2022/02/19 03:13:41;;;;;;;2.83;1.10;;;25.80;46.10;;;;;;5091255;28;20247;-61
2022/02/19 03:16:12;;;;;;;3.15;1.30;;;25.80;46.10;;;;;;5090893;28;20255;-61
2022/02/19 03:18:42;;;;;;;3.08;1.30;;;25.80;46.20;;;;;;5090971;28;20646;-60
2022/02/19 03:21:13;;;;;;;2.05;1.30;;;25.80;46.20;;;;;;5090868;28;20287;-61
2022/02/19 03:23:45;;;;;;;1.70;1.08;;;25.80;46.20;;;;;;5090781;28;20194;-52
2022/02/19 03:26:16;;;;;;;1.85;1.10;;;25.80;46.20;;;;;;5090465;28;20640;-47
2022/02/19 03:28:47;;;;;;;3.08;1.92;;;25.80;46.80;;;;;;5091195;28;20216;-46
2022/02/19 03:31:17;;;;;;;16.65;2.72;;;25.80;47.10;;;;;;5090649;28;20746;-48
2022/02/19 03:33:48;;;;;;;7.63;2.20;;;25.80;47.40;;;;;;5090397;28;20267;-48
2022/02/19 03:36:18;;;;;;;15.38;3.05;;;25.80;47.90;;;;;;5090751;28;20251;-57
2022/02/19 03:38:51;;;;;;;14.25;3.28;;;25.70;48.20;;;;;;5089699;28;20419;-60
2022/02/19 03:41:22;;;;;;;15.75;3.00;;;25.60;49.30;;;;;;5090654;28;20697;-61
2022/02/19 03:43:52;;;;;;;12.95;2.78;;;25.60;49.10;;;;;;5088257;28;20206;-58
2022/02/19 03:46:23;;;;;;;13.65;2.95;;;25.60;48.70;;;;;;5085342;28;20286;-59
2022/02/19 03:48:53;;;;;;;10.02;2.55;;;25.60;48.70;;;;;;5089328;28;20275;-59
2022/02/19 03:51:24;;;;;;;10.30;2.30;;;25.60;48.60;;;;;;5087930;28;20648;-59
2022/02/19 03:53:57;;;;;;;11.13;2.30;;;25.60;48.60;;;;;;5087428;28;20245;-58
2022/02/19 03:56:28;;;;;;;7.72;2.70;;;25.70;48.70;;;;;;5088148;28;20237;-58
2022/02/19 03:58:59;;;;;;;6.63;2.30;;;25.60;48.60;;;;;;5089364;28;20255;-59
2022/02/19 04:01:30;;;;;;;7.25;2.20;;;25.60;48.50;;;;;;5088493;28;20351;-60
2022/02/19 04:04:00;;;;;;;7.35;2.45;;;25.60;48.60;;;;;;5088658;28;20198;-60
2022/02/19 04:06:31;;;;;;;5.85;2.30;;;25.60;48.50;;;;;;5086706;28;20230;-59
2022/02/19 04:09:07;;;;;;;7.63;2.55;;;25.60;48.50;;;;;;5087809;28;20222;-59
2022/02/19 04:11:38;;;;;;;8.10;2.30;;;25.70;48.60;;;;;;5088356;28;20273;-59
2022/02/19 04:14:08;;;;;;;7.00;2.65;;;25.60;48.60;;;;;;5088610;28;20186;-59
2022/02/19 04:16:39;;;;;;;5.65;2.25;;;25.60;48.50;;;;;;5089185;28;20195;-59
2022/02/19 04:19:10;;;;;;;8.05;2.53;;;25.60;48.50;;;;;;5088384;28;20852;-58
2022/02/19 04:21:41;;;;;;;6.13;2.33;;;25.60;48.60;;;;;;5088749;28;20603;-59
2022/02/19 04:24:13;;;;;;;7.72;2.20;;;25.60;48.50;;;;;;5088274;28;20243;-60
2022/02/19 04:26:44;;;;;;;4.80;2.20;;;25.60;48.60;;;;;;5088261;28;20229;-59
2022/02/19 04:29:15;;;;;;;6.57;2.30;;;25.60;48.60;;;;;;5088422;28;20226;-60
2022/02/19 04:31:45;;;;;;;6.10;2.47;;;25.60;48.60;;;;;;5088771;28;20199;-59
2022/02/19 04:34:16;;;;;;;4.13;1.98;;;25.60;48.60;;;;;;5087735;28;20196;-59
2022/02/19 04:36:48;;;;;;;5.55;2.03;;;25.60;48.60;;;;;;5088113;28;20202;-60
2022/02/19 04:41:54;;;;;;;4.25;2.05;;;25.50;48.50;;;;;;5023479;28;20214;-47
2022/02/19 04:44:25;;;;;;;4.13;1.60;;;25.50;48.50;;;;;;5027658;28;20204;-66
2022/02/19 04:46:56;;;;;;;4.95;1.75;;;25.50;48.60;;;;;;5027622;28;20232;-52
2022/02/19 04:49:27;;;;;;;4.53;2.15;;;25.50;48.60;;;;;;5028894;28;20251;-48
2022/02/19 04:51:58;;;;;;;5.72;2.00;;;25.50;48.60;;;;;;5026517;28;20200;-47
2022/02/19 04:54:29;;;;;;;5.80;2.10;;;25.50;49.10;;;;;;5028372;28;20734;-50
2022/02/19 04:57:01;;;;;;;6.25;2.13;;;25.50;48.60;;;;;;5028498;28;20196;-47
2022/02/19 04:59:35;;;;;;;5.15;1.75;;;25.50;48.60;;;;;;5027810;28;20223;-52
2022/02/19 05:02:06;;;;;;;5.22;2.42;;;25.40;48.60;;;;;;5027933;28;20192;-47
2022/02/19 05:04:36;;;;;;;8.75;2.22;;;25.50;48.70;;;;;;5025682;28;20200;-48
2022/02/19 05:07:07;;;;;;;5.00;1.90;;;25.40;48.60;;;;;;5028044;28;20277;-47
2022/02/19 05:09:38;;;;;;;5.90;2.08;;;25.40;48.70;;;;;;5028336;28;20221;-47
2022/02/19 05:12:12;;;;;;;5.00;1.73;;;25.40;48.70;;;;;;5028452;28;20197;-59
2022/02/19 05:14:43;;;;;;;4.30;1.70;;;25.40;48.70;;;;;;5027230;28;20315;-53
2022/02/19 05:17:13;;;;;;;4.95;2.00;;;25.30;48.70;;;;;;5028569;28;20196;-47
2022/02/19 05:19:44;;;;;;;4.50;1.88;;;25.30;48.70;;;;;;5031511;28;20642;-47
2022/02/19 05:22:15;;;;;;;5.50;1.98;;;25.30;48.70;;;;;;5030461;28;20208;-51
2022/02/19 05:24:49;;;;;;;3.38;1.70;;;25.30;48.70;;;;;;5031462;28;20196;-65
2022/02/19 05:27:21;;;;;;;3.72;1.80;;;25.30;48.70;;;;;;5032398;28;20224;-50
2022/02/19 05:29:52;;;;;;;5.00;1.75;;;25.30;48.70;;;;;;5031835;28;20220;-60
2022/02/19 05:32:23;;;;;;;3.38;1.58;;;25.30;48.70;;;;;;5030688;28;20833;-48
2022/02/19 05:34:53;;;;;;;3.83;1.60;;;25.20;48.90;;;;;;5030356;28;20293;-49
2022/02/19 05:37:24;;;;;;;3.95;1.45;;;25.10;49.00;;;;;;5031843;28;20250;-48
2022/02/19 05:39:55;;;;;;;3.63;1.48;;;25.10;49.10;;;;;;5031805;28;20223;-48
2022/02/19 05:44:58;;;;;;;3.75;1.60;;;25.00;49.20;;;;;;5007002;28;20220;-56
2022/02/19 05:47:28;;;;;;;3.30;1.70;;;25.00;49.30;;;;;;5011179;28;20239;-54
2022/02/19 05:49:59;;;;;;;5.05;1.50;;;24.90;49.40;;;;;;5011266;28;20232;-54
2022/02/19 05:52:30;;;;;;;4.18;1.77;;;24.90;49.40;;;;;;5010927;28;20201;-55
2022/02/19 05:55:04;;;;;;;2.33;1.52;;;24.90;49.40;;;;;;5011343;28;20200;-58
2022/02/19 05:57:35;;;;;;;3.33;1.67;;;24.90;49.40;;;;;;5011345;28;20236;-54
2022/02/19 06:00:09;;;;;;;3.47;1.52;;;24.90;49.50;;;;;;5011121;28;20220;-51
2022/02/19 06:02:40;;;;;;;2.65;1.52;;;24.90;49.50;;;;;;5008870;28;20196;-53
2022/02/19 06:05:11;;;;;;;3.50;1.48;;;24.80;49.40;;;;;;5010629;28;20193;-50
2022/02/19 06:07:42;;;;;;;3.15;1.60;;;24.80;49.50;;;;;;5011549;28;20279;-50
2022/02/19 06:10:14;;;;;;;4.13;1.80;;;24.80;49.50;;;;;;5010607;28;20209;-54
2022/02/19 06:12:45;;;;;;;2.72;1.48;;;24.80;49.50;;;;;;5009886;28;20324;-51
2022/02/19 06:15:17;;;;;;;2.90;1.30;;;24.70;49.50;;;;;;5006655;28;20248;-53
2022/02/19 06:17:48;;;;;;;3.30;1.52;;;24.70;49.50;;;;;;5009033;28;20259;-57
2022/02/19 06:20:19;;;;;;;3.28;1.40;;;24.70;49.50;;;;;;5006684;28;20247;-57
2022/02/19 06:22:49;;;;;;;2.20;1.00;;;24.70;49.60;;;;;;5006809;28;20197;-57
2022/02/19 06:25:20;;;;;;;3.25;1.30;;;24.60;49.50;;;;;;4993218;28;20194;-59
2022/02/19 06:27:51;;;;;;;2.05;1.55;;;24.60;49.60;;;;;;4992282;28;20279;-57
2022/02/19 06:30:24;;;;;;;2.42;1.10;;;24.60;49.60;;;;;;4991310;28;20743;-56
2022/02/19 06:32:55;;;;;;;3.05;1.50;;;24.60;49.60;;;;;;4991580;28;20611;-58
2022/02/19 06:35:26;;;;;;;2.17;1.45;;;24.50;49.60;;;;;;4992448;28;20205;-58
2022/02/19 06:37:57;;;;;;;2.38;1.13;;;24.50;49.70;;;;;;4992065;28;20568;-58
2022/02/19 06:40:31;;;;;;;2.78;1.35;;;24.50;49.70;;;;;;4991747;28;20279;-52
2022/02/19 06:43:01;;;;;;;1.67;1.20;;;24.40;49.60;;;;;;5008157;23;20228;-60
2022/02/19 06:45:35;;;;;;;3.47;1.40;;;24.50;49.70;;;;;;5010867;28;20247;-56
2022/02/19 06:48:05;;;;;;;2.35;1.13;;;24.40;49.70;;;;;;5011624;28;20228;-60
2022/02/19 06:50:36;;;;;;;2.92;1.20;;;24.40;49.70;;;;;;5011608;28;20213;-56
2022/02/19 06:53:07;;;;;;;2.97;1.42;;;24.40;49.70;;;;;;5011490;28;20669;-56
2022/02/19 06:55:37;;;;;;;2.67;1.30;;;24.30;49.70;;;;;;5010761;28;20201;-59
2022/02/19 06:58:08;;;;;;;3.55;1.40;;;24.30;49.70;;;;;;5011148;28;20196;-56
2022/02/19 07:00:40;;;;;;;3.08;1.38;;;24.30;49.80;;;;;;5011372;28;20216;-58
2022/02/19 07:03:11;;;;;;;2.85;1.50;;;24.30;49.80;;;;;;5011403;28;20200;-60
2022/02/19 07:05:42;;;;;;;2.13;1.20;;;24.20;49.80;;;;;;5011734;28;20201;-57
2022/02/19 07:08:13;;;;;;;1.60;1.10;;;24.20;49.80;;;;;;5011486;28;20232;-59
2022/02/19 07:10:43;;;;;;;2.20;1.20;;;24.20;49.80;;;;;;5003700;28;20214;-59
2022/02/19 07:13:14;;;;;;;2.17;1.13;;;24.20;49.90;;;;;;4991920;28;20197;-59
2022/02/19 07:15:46;;;;;;;2.08;1.10;;;24.10;49.90;;;;;;4991639;28;20220;-57
2022/02/19 07:18:17;;;;;;;1.45;1.02;;;24.10;49.90;;;;;;4991208;28;20244;-56
2022/02/19 07:20:48;;;;;;;3.38;1.30;;;24.10;49.90;;;;;;4991008;28;20279;-54
2022/02/19 07:23:19;;;;;;;1.73;1.10;;;24.00;49.90;;;;;;5010813;28;20208;-57
2022/02/19 07:25:50;;;;;;;2.13;1.10;;;24.00;49.90;;;;;;5010612;28;20201;-59
2022/02/19 07:28:20;;;;;;;2.08;1.10;;;24.00;49.90;;;;;;5010876;28;20228;-57
2022/02/19 07:30:53;;;;;;;3.22;1.30;;;24.00;50.00;;;;;;5013493;28;20262;-59
2022/02/19 07:33:23;;;;;;;1.00;0.80;;;24.00;50.00;;;;;;5010877;28;20270;-55
2022/02/19 07:35:54;;;;;;;2.67;1.20;;;23.90;50.00;;;;;;5011021;28;20196;-60
2022/02/19 07:38:24;;;;;;;2.70;1.15;;;23.90;50.10;;;;;;5010632;28;20203;-60
2022/02/19 07:40:55;;;;;;;1.83;1.13;;;23.90;50.10;;;;;;5010073;28;20213;-57
2022/02/19 07:43:25;;;;;;;2.65;1.23;;;23.80;50.10;;;;;;5023907;23;20232;-59
2022/02/19 07:45:58;;;;;;;1.17;0.93;;;23.80;50.10;;;;;;5010811;28;20243;-58
2022/02/19 07:48:30;;;;;;;1.25;0.82;;;23.80;50.10;;;;;;5010444;28;20221;-59
2022/02/19 07:59:22;;;;;;;3.03;1.10;;;23.70;50.20;;;;;;4971741;28;20200;-57
2022/02/19 08:01:55;;;;;;;2.47;1.23;;;23.70;50.20;;;;;;4971778;28;20260;-57
2022/02/19 08:04:26;;;;;;;1.80;1.02;;;23.70;50.30;;;;;;4971780;28;20728;-58
2022/02/19 08:06:56;;;;;;;2.50;1.08;;;23.70;50.30;;;;;;4971453;28;20222;-59
2022/02/19 08:09:27;;;;;;;1.65;1.10;;;23.60;50.30;;;;;;4979456;28;20650;-58
2022/02/19 08:11:58;;;;;;;1.75;0.90;;;23.60;50.30;;;;;;5010437;28;20199;-58
2022/02/19 08:14:28;;;;;;;1.35;0.80;;;23.50;50.30;;;;;;5010527;28;20255;-58
2022/02/19 08:17:01;;;;;;;1.77;0.85;;;23.50;50.30;;;;;;5010574;28;20231;-55
2022/02/19 08:19:31;;;;;;;2.50;1.25;;;23.50;50.40;;;;;;5010468;28;20730;-60
2022/02/19 08:22:02;;;;;;;2.45;1.20;;;23.50;50.40;;;;;;5001019;28;20201;-53
2022/02/19 08:24:32;;;;;;;1.65;0.98;;;23.50;50.40;;;;;;4994280;28;20200;-59
2022/02/19 08:27:03;;;;;;;1.50;0.90;;;23.50;50.50;;;;;;5009697;28;20220;-56
2022/02/19 08:29:34;;;;;;;3.17;1.35;;;23.40;50.40;;;;;;5010118;28;20197;-57
2022/02/19 08:32:09;;;;;;;2.85;1.40;;;23.40;50.50;;;;;;5008976;28;20193;-57
2022/02/19 08:34:40;;;;;;;1.48;0.80;;;23.40;50.50;;;;;;5008064;28;20243;-58
2022/02/19 08:37:10;;;;;;;2.35;1.13;;;23.40;50.50;;;;;;5010163;28;20201;-52
2022/02/19 08:39:41;;;;;;;1.63;1.00;;;23.40;50.50;;;;;;5005129;28;20296;-59
2022/02/19 08:42:11;;;;;;;1.52;0.98;;;23.30;50.60;;;;;;4990694;28;20699;-59
2022/02/19 08:44:42;;;;;;;2.03;0.90;;;23.30;50.60;;;;;;4990894;28;20255;-60
2022/02/19 08:47:14;;;;;;;2.40;1.00;;;23.30;50.60;;;;;;4990498;28;20213;-59
2022/02/19 08:49:45;;;;;;;3.30;1.33;;;23.30;50.60;;;;;;4990490;28;20222;-58
2022/02/19 08:52:16;;;;;;;2.08;0.98;;;23.30;50.60;;;;;;4987481;28;20204;-53
2022/02/19 08:54:46;;;;;;;2.28;1.10;;;23.20;50.60;;;;;;4993000;28;20201;-60
2022/02/19 08:57:17;;;;;;;1.90;1.05;;;23.20;50.70;;;;;;4992320;28;20673;-59
2022/02/19 08:59:48;;;;;;;2.45;1.10;;;23.20;50.70;;;;;;4992899;28;20637;-60
2022/02/19 09:02:20;;;;;;;1.92;1.10;;;23.20;50.70;;;;;;4990364;28;20197;-57
2022/02/19 09:04:51;;;;;;;1.42;0.95;;;23.20;50.70;;;;;;4992037;28;20198;-59
2022/02/19 09:07:21;;;;;;;1.65;0.90;;;23.20;50.70;;;;;;4992847;28;20217;-58
2022/02/19 09:09:52;;;;;;;1.13;0.90;;;23.10;51.30;;;;;;4992612;28;20221;-58
2022/02/19 09:12:22;;;;;;;3.10;1.40;;;23.10;50.70;;;;;;4992746;28;20248;-60
2022/02/19 09:14:53;;;;;;;2.45;1.17;;;23.10;50.80;;;;;;4991341;28;20198;-59
2022/02/19 09:17:26;;;;;;;2.08;1.30;;;23.10;50.80;;;;;;4992075;28;20279;-60
2022/02/19 09:19:56;;;;;;;1.90;1.00;;;23.00;50.70;;;;;;4992206;28;20225;-57
2022/02/19 09:22:27;;;;;;;2.08;1.02;;;23.00;50.80;;;;;;4991751;28;20240;-59
2022/02/19 09:24:57;;;;;;;2.95;1.40;;;23.00;50.90;;;;;;4992528;28;20292;-58
2022/02/19 09:27:28;;;;;;;1.48;0.98;;;23.00;50.90;;;;;;4991512;28;20221;-53
2022/02/19 09:29:59;;;;;;;2.70;1.17;;;23.00;50.90;;;;;;4992505;28;20225;-58
2022/02/19 09:32:31;;;;;;;2.70;1.38;;;22.90;50.90;;;;;;4992456;28;20200;-55
2022/02/19 09:35:02;;;;;;;3.63;1.30;;;22.90;51.50;;;;;;4992471;28;21048;-59
2022/02/19 09:37:36;;;;;;;2.25;1.20;;;22.90;51.00;;;;;;4992062;28;20204;-60
2022/02/19 09:40:08;;;;;;;2.45;1.35;;;22.90;51.00;;;;;;4991346;28;20221;-59
2022/02/19 09:42:40;;;;;;;2.58;1.30;;;22.90;51.00;;;;;;4991949;28;20197;-55
2022/02/19 09:45:11;;;;;;;3.45;1.25;;;22.90;51.00;;;;;;4991400;28;20704;-60
2022/02/19 09:47:44;;;;;;;3.72;1.25;;;22.80;51.00;;;;;;4992177;28;20633;-58
2022/02/19 09:50:14;;;;;;;3.25;1.45;;;22.80;51.00;;;;;;4991611;28;20280;-60
2022/02/19 09:52:45;;;;;;;2.92;1.33;;;22.80;51.00;;;;;;4991113;28;20665;-57
2022/02/19 09:55:15;;;;;;;4.55;1.50;;;22.80;51.10;;;;;;4991633;28;20255;-59
2022/02/19 09:57:46;;;;;;;2.53;1.40;;;22.80;51.10;;;;;;4991508;28;20255;-59
2022/02/19 10:00:28;;;;;;;2.30;1.30;;;22.80;51.10;;;;;;4990475;28;20222;-56
2022/02/19 10:03:01;;;;;;;3.65;1.50;;;22.80;51.10;;;;;;4990844;28;20201;-56
2022/02/19 10:05:33;;;;;;;2.78;1.60;;;22.70;51.10;;;;;;4990170;28;20256;-57
2022/02/19 10:08:06;;;;;;;2.90;1.50;;;22.70;51.10;;;;;;4991643;28;20279;-59
2022/02/19 10:10:42;;;;;;;2.47;1.25;;;22.70;51.20;;;;;;4990660;28;20291;-56
2022/02/19 10:13:13;;;;;;;2.10;1.33;;;22.70;51.10;;;;;;4991089;28;20277;-54
2022/02/19 10:15:49;;;;;;;3.08;1.40;;;22.60;51.20;;;;;;4991627;28;20268;-55
2022/02/19 10:18:29;;;;;;;3.95;1.38;;;22.60;51.50;;;;;;4991388;28;20193;-58
2022/02/19 10:21:15;;;;;;;3.78;1.70;;;22.60;51.20;;;;;;4991546;28;20229;-58
2022/02/19 10:23:47;;;;;;;3.45;1.42;;;22.60;51.20;;;;;;4990732;28;20716;-57
2022/02/19 10:26:18;;;;;;;3.22;1.55;;;22.50;51.10;;;;;;4990736;28;20264;-50
2022/02/19 10:29:00;;;;;;;2.45;1.40;;;22.50;51.10;;;;;;4990639;28;20287;-58
2022/02/19 10:31:31;;;;;;;4.45;1.73;;;22.50;51.20;;;;;;4991257;28;20252;-55
2022/02/19 10:34:12;;;;;;;6.82;2.20;;;22.50;51.20;;;;;;4991602;28;20201;-56
2022/02/19 10:36:48;;;;;;;3.03;1.38;;;22.50;51.20;;;;;;4993687;28;20774;-58
2022/02/19 10:39:28;;;;;;;3.15;1.48;;;22.50;51.20;;;;;;4991913;28;20532;-52
2022/02/19 10:42:04;;;;;;;3.97;1.42;;;22.40;51.20;;;;;;4991844;28;20197;-55
2022/02/19 10:44:36;;;;;;;4.68;1.88;;;22.40;51.20;;;;;;4992546;28;20251;-57
2022/02/19 10:47:22;;;;;;;3.30;1.20;;;22.40;51.20;;;;;;4993640;28;20256;-55
2022/02/19 10:50:16;;;;;;;2.45;1.42;;;22.40;51.20;;;;;;5011568;28;20275;-57
2022/02/19 10:52:53;;;;;;;3.15;1.67;;;22.40;51.30;;;;;;4996800;28;20633;-55
2022/02/19 10:55:29;;;;;;;4.72;1.77;;;22.40;51.20;;;;;;4992510;28;20204;-54
2022/02/19 10:58:03;;;;;;;3.83;1.70;;;22.30;51.20;;;;;;4992499;28;20200;-58
2022/02/19 11:00:37;;;;;;;3.28;1.70;;;22.30;51.30;;;;;;4992348;28;20217;-54
2022/02/19 11:03:09;;;;;;;3.10;1.48;;;22.30;51.30;;;;;;5000868;28;20193;-53
2022/02/19 11:05:42;;;;;;;4.28;1.60;;;22.30;51.30;;;;;;5011699;28;20568;-53
2022/02/19 11:08:13;;;;;;;3.67;1.50;;;22.20;51.30;;;;;;5011279;28;20229;-51
2022/02/19 11:10:44;;;;;;;4.05;1.90;;;22.30;51.30;;;;;;5011232;28;20212;-56
2022/02/19 11:13:16;;;;;;;2.40;1.50;;;22.30;51.40;;;;;;4998613;28;20193;-54
2022/02/19 11:15:47;;;;;;;3.33;1.88;;;22.20;52.00;;;;;;4991645;28;20620;-56
2022/02/19 11:18:18;;;;;;;4.78;1.50;;;22.20;51.40;;;;;;4991639;28;20343;-52
2022/02/19 11:20:54;;;;;;;2.80;1.40;;;22.20;51.40;;;;;;4991431;28;20555;-51
2022/02/19 11:23:26;;;;;;;3.45;1.65;;;22.20;51.40;;;;;;4971988;28;20617;-50
2022/02/19 11:25:56;;;;;;;3.42;1.55;;;22.10;51.40;;;;;;4972241;28;20198;-54
2022/02/19 11:28:31;;;;;;;3.40;1.48;;;22.10;51.40;;;;;;4972004;28;20370;-54
2022/02/19 11:31:04;;;;;;;3.17;1.50;;;22.10;51.40;;;;;;4971955;28;20288;-51
2022/02/19 11:33:39;;;;;;;3.15;1.40;;;22.10;51.40;;;;;;4994459;28;20204;-56
2022/02/19 11:36:13;;;;;;;3.45;1.67;;;22.10;51.40;;;;;;5011153;28;20259;-57
2022/02/19 11:38:53;;;;;;;4.60;1.75;;;22.10;51.40;;;;;;5010463;28;20201;-51
2022/02/19 11:41:40;;;;;;;3.65;1.67;;;22.00;51.40;;;;;;5006063;28;20208;-55
2022/02/19 11:44:30;;;;;;;4.55;1.58;;;22.00;51.40;;;;;;5010520;28;20254;-50
2022/02/19 11:47:00;;;;;;;3.88;1.60;;;22.00;51.50;;;;;;5011122;28;20681;-55
2022/02/19 11:49:32;;;;;;;3.65;1.63;;;22.00;51.40;;;;;;4991634;28;20700;-57
2022/02/19 11:52:20;;;;;;;4.22;1.63;;;22.00;51.50;;;;;;4991161;28;20248;-53
2022/02/19 11:54:54;;;;;;;4.90;1.83;;;22.00;51.50;;;;;;4991406;28;20198;-59
2022/02/19 11:57:28;;;;;;;3.85;1.80;;;22.00;51.50;;;;;;4990438;28;20193;-57
2022/02/19 11:59:58;;;;;;;3.55;1.60;;;21.90;51.50;;;;;;4980115;28;20234;-53
2022/02/19 12:02:30;;;;;;;3.53;1.52;;;21.90;51.50;;;;;;4973019;28;20202;-56
2022/02/19 12:05:18;;;;;;;2.72;1.40;;;21.90;51.60;;;;;;5010204;28;20204;-57
2022/02/19 12:08:04;;;;;;;3.42;1.50;;;21.90;51.50;;;;;;5004685;28;20209;-54
2022/02/19 12:10:55;;;;;;;3.28;1.58;;;21.90;51.50;;;;;;5010777;28;20724;-56
2022/02/19 12:13:45;;;;;;;3.33;1.75;;;21.90;51.60;;;;;;5010248;28;20196;-59
2022/02/19 12:16:47;;;;;;;3.33;1.60;;;21.80;51.50;;;;;;5010379;28;20203;-59
2022/02/19 12:19:18;;;;;;;4.13;1.75;;;21.80;51.50;;;;;;5008321;28;20652;-58
2022/02/19 12:21:49;;;;;;;2.38;1.40;;;21.80;51.50;;;;;;5001119;28;20267;-52
2022/02/19 12:24:23;;;;;;;3.50;1.58;;;21.80;51.50;;;;;;4989133;28;20267;-60
2022/02/19 12:27:16;;;;;;;2.10;1.30;;;21.80;51.50;;;;;;4990123;28;20658;-57
2022/02/19 12:29:51;;;;;;;2.75;1.52;;;21.80;51.60;;;;;;4990510;28;20291;-52
2022/02/19 12:32:22;;;;;;;3.95;1.83;;;21.70;51.50;;;;;;4990730;28;20197;-52
2022/02/19 12:34:54;;;;;;;4.25;1.70;;;21.70;51.50;;;;;;4992121;28;20296;-51
2022/02/19 12:37:25;;;;;;;2.42;1.60;;;21.70;51.60;;;;;;4990322;28;20198;-50
2022/02/19 12:39:58;;;;;;;3.15;1.65;;;21.70;51.60;;;;;;4990286;28;20263;-56
2022/02/19 12:42:30;;;;;;;2.72;1.33;;;21.70;51.70;;;;;;4990711;28;20257;-50
2022/02/19 12:45:03;;;;;;;2.28;1.33;;;21.70;51.70;;;;;;4990536;28;20197;-54
2022/02/19 12:47:37;;;;;;;2.78;1.48;;;21.70;51.70;;;;;;4990980;28;20284;-54
2022/02/19 12:50:09;;;;;;;3.13;1.67;;;21.60;51.60;;;;;;4971185;28;20229;-61
2022/02/19 12:52:40;;;;;;;3.38;1.40;;;21.60;51.60;;;;;;4985589;28;20274;-55
2022/02/19 12:55:17;;;;;;;2.45;1.48;;;21.60;51.60;;;;;;4990889;28;20197;-60
2022/02/19 12:57:50;;;;;;;3.67;1.60;;;21.60;51.60;;;;;;4990279;28;20201;-58
2022/02/19 13:00:22;;;;;;;3.13;1.50;;;21.60;51.60;;;;;;4989962;28;20264;-57
2022/02/19 13:03:00;;;;;;;4.00;1.50;;;21.60;51.60;;;;;;4991157;28;20420;-59
2022/02/19 13:05:32;;;;;;;4.00;1.70;;;21.50;51.60;;;;;;5010497;28;20538;-62
2022/02/19 13:08:10;;;;;;;3.15;1.63;;;21.60;51.70;;;;;;5009780;28;20197;-57
2022/02/19 13:10:44;;;;;;;1.77;1.17;;;21.50;51.60;;;;;;5009274;28;20759;-57
2022/02/19 13:13:21;;;;;;;2.40;1.48;;;21.50;51.70;;;;;;5009486;28;20197;-60
2022/02/19 13:15:59;;;;;;;3.05;1.40;;;21.50;51.70;;;;;;5009844;28;20743;-56
2022/02/19 13:18:40;;;;;;;3.03;1.30;;;21.50;51.60;;;;;;4996464;28;20562;-50
2022/02/19 13:21:15;;;;;;;2.60;1.30;;;21.50;51.60;;;;;;5001424;28;20213;-53
2022/02/19 13:23:46;;;;;;;3.55;1.30;;;21.50;51.70;;;;;;4990592;28;20623;-52
2022/02/19 13:26:29;;;;;;;2.90;1.35;;;21.50;51.70;;;;;;4990437;28;20198;-57